AirNav   Pilot Hours Calculator
 
 626 users online  

31FL Forever Florida Airport
Melbourne, Florida, USA

GOING TO MELBOURNE?


FAA INFORMATION EFFECTIVE 28 FEBRUARY 2019

Location

FAA Identifier: 31FL
Lat/Long: 28-02-36.0690N / 081-01-09.2270W
28-02.601150N / 081-01.153783W
28.0433525 / -81.0192297
(estimated)
Elevation: 54 ft. / 16 m (estimated)
Variation: 03W (1985)
From city: 22 miles W of MELBOURNE, FL
Time zone: UTC -5 (UTC -4 during Daylight Saving Time)
Zip code: 34773

Airport Operations

Airport use: Private use. Permission required prior to landing
Activation date: 06/1981
Control tower: no
ARTCC: JACKSONVILLE CENTER
FSS: SAINT PETERSBURG FLIGHT SERVICE STATION
Attendance: UNATNDD
Wind indicator: yes
Segmented circle: no

Nearby radio navigation aids

VOR radial/distance  VOR name  Freq  Var
MLBr267/20.7MELBOURNE VOR/DME110.0007W
ORLr151/34.3ORLANDO VORTAC112.2000E
TRVr315/35.6TREASURE VORTAC117.3007W

Airport Services

Runway Information

Runway 9/27

Dimensions: 3000 x 150 ft. / 914 x 46 m
Surface: turf
RUNWAY 9  RUNWAY 27
Traffic pattern: leftleft

Airport Ownership and Management from official FAA records

Ownership: Privately-owned
Owner: ALLEN BROUSARD CONSERVANCY INC
4755 N. KENANVILLE RD
ST CLOUD, FL 34773
Phone (407) 892-5010
Manager: CYNTHIA DAVIS
4755 N. KENANVILLE RD
ST CLOUD, FL 34773
Phone (407) 892-5010

Instrument Procedures

There are no published instrument procedures at 31FL.

Some nearby airports with instrument procedures:

KMLB - Melbourne International Airport (20 nm E)
KCOF - Patrick Air Force Base (25 nm NE)
KCOI - Merritt Island Airport (25 nm NE)
KISM - Kissimmee Gateway Airport (27 nm NW)
KMCO - Orlando International Airport (28 nm NW)
 
Loc | Ops | Rwys | IFR | FBO | Links
Com | Nav | Svcs | Stats | Notes


 
Area around 31FL (Forever Florida Airport)
 
Road maps at: MapQuest Bing Google
 
Aerial photo
WARNING: Photo may not be current or correct
Aerial photo of 31FL (Forever Florida Airport)
Photo courtesy of Skylar Schoemig

Do you have a better or more recent aerial photo of Forever Florida Airport that you would like to share? If so, please send us your photo.

 
Sectional chart

 
Airport distance calculator
Flying to Forever Florida Airport? Find the distance to fly.

From to 31FL

Sunrise and sunset
Times for 24-Mar-2019
 Local
(UTC-4)
 Zulu
(UTC)
Morning civil twilight07:0111:01
Sunrise07:2411:24
Sunset19:3623:36
Evening civil twilight20:0024:00

Current date and time
Zulu (UTC)  24-Mar-2019 12:37:58
Local (UTC-4)  24-Mar-2019 08:37:58
 
METAR
KMLB 
20nm E 
241153Z 08003KT 10SM SCT045 17/14 A3023 RMK AO2 SLP237 T01720139 10194 20156 53011
KCOF 
25nm NE 
241156Z AUTO 06005KT 10SM FEW045 20/18 A3023 RMK AO2 SLP241 T01950178 10195 20178 52012 $
KISM 
26nm NW 
241156Z 06004KT 10SM CLR 16/14 A3026 RMK AO2 SLP248 6//// 7//// T01610139 10161 20144 53013 PNO $
KMCO 
28nm NW 
241153Z 06006KT 10SM FEW060 BKN300 16/13 A3026 RMK AO2 SLP243 T01610133 10167 20144 53015
KTIX 
31nm NE 
241147Z VRB04KT 7SM SCT045 16/17 A3025
KX07 
33nm W 
241215Z AUTO 08003KT 9SM CLR 15/14 A3025 RMK A01
KORL 
35nm NW 
241153Z 05005KT 10SM CLR 16/13 A3025 RMK AO2 SLP248 T01560128 10156 20144 53015
KXMR 
36nm NE 
241156Z AUTO 07005KT 10SM FEW045 16/14 A3023 RMK AO2 SLP240 T01620140 10164 20139 53012 $
KTTS 
38nm NE 
241156Z AUTO 07003KT 10SM BKN045 14/13 A3025 RMK AO2 SLP248 T01410131 10155 20128 52015 $
KGIF 
39nm W 
241153Z AUTO 06005KT 10SM CLR 16/14 A3025 RMK AO2 SLP243 T01560139 10167 20150 53014
TAF
KMLB 
20nm E 
241122Z 2412/2512 07005KT P6SM SCT045 BKN250 FM241500 10010KT P6SM SCT040 BKN250 FM250000 12007KT P6SM FEW030 SCT250
NOTAMs
Click for the latest NOTAMs
NOTAMs are issued by the DoD/FAA and will open in a separate window not controlled by AirNav.

 

 
 

Would you like to see your business listed on this page?

 If your business provides an interesting product or service to pilots, flight crews, aircraft, or users of the Forever Florida Airport, you should consider listing it here.  To start the listing process, click on the button below
 
Add a business
 

Other Pages about Forever Florida Airport

Update a link
 
Copyright © AirNav, LLC. All rights reserved. Privacy Policy  Contact